sensor_id;sensor_type;location;lat;lon;timestamp;pressure;altitude;pressure_sealevel;temperature;humidity
11448;BME280;43755;49.736;8.734;2023-05-22T00:00:14;97477.34;;;14.21;100.00
11448;BME280;43755;49.736;8.734;2023-05-22T00:02:15;97482.59;;;14.23;100.00
11448;BME280;43755;49.736;8.734;2023-05-22T00:04:17;97481.41;;;14.27;100.00
11448;BME280;43755;49.736;8.734;2023-05-22T00:06:20;97478.56;;;14.30;100.00
11448;BME280;43755;49.736;8.734;2023-05-22T00:08:22;97481.78;;;14.35;100.00
11448;BME280;43755;49.736;8.734;2023-05-22T00:10:24;97475.41;;;14.38;100.00
11448;BME280;43755;49.736;8.734;2023-05-22T00:12:25;97479.91;;;14.37;100.00
11448;BME280;43755;49.736;8.734;2023-05-22T00:14:28;97479.59;;;14.42;100.00
11448;BME280;43755;49.736;8.734;2023-05-22T00:16:29;97477.81;;;14.42;100.00
11448;BME280;43755;49.736;8.734;2023-05-22T00:18:31;97474.81;;;14.47;100.00
11448;BME280;43755;49.736;8.734;2023-05-22T00:20:32;97473.88;;;14.48;100.00
11448;BME280;43755;49.736;8.734;2023-05-22T00:22:37;97474.81;;;14.47;100.00
11448;BME280;43755;49.736;8.734;2023-05-22T00:24:39;97469.50;;;14.47;100.00
11448;BME280;43755;49.736;8.734;2023-05-22T00:26:40;97477.69;;;14.44;100.00
11448;BME280;43755;49.736;8.734;2023-05-22T00:28:41;97473.34;;;14.43;100.00
11448;BME280;43755;49.736;8.734;2023-05-22T00:30:44;97472.56;;;14.41;100.00
11448;BME280;43755;49.736;8.734;2023-05-22T00:32:46;97473.59;;;14.38;100.00
11448;BME280;43755;49.736;8.734;2023-05-22T00:34:47;97472.31;;;14.31;100.00
11448;BME280;43755;49.736;8.734;2023-05-22T00:36:49;97468.03;;;14.28;100.00
11448;BME280;43755;49.736;8.734;2023-05-22T00:38:50;97467.56;;;14.22;100.00
11448;BME280;43755;49.736;8.734;2023-05-22T00:40:52;97462.34;;;14.20;100.00
11448;BME280;43755;49.736;8.734;2023-05-22T00:42:53;97471.84;;;14.24;100.00
11448;BME280;43755;49.736;8.734;2023-05-22T00:44:55;97464.59;;;14.26;100.00
11448;BME280;43755;49.736;8.734;2023-05-22T00:46:57;97463.16;;;14.35;100.00
11448;BME280;43755;49.736;8.734;2023-05-22T00:48:59;97457.06;;;14.33;100.00
11448;BME280;43755;49.736;8.734;2023-05-22T00:51:00;97457.06;;;14.33;100.00
11448;BME280;43755;49.736;8.734;2023-05-22T00:53:02;97459.94;;;14.30;100.00
11448;BME280;43755;49.736;8.734;2023-05-22T00:55:04;97467.13;;;14.15;100.00
11448;BME280;43755;49.736;8.734;2023-05-22T00:57:06;97460.38;;;14.10;100.00
11448;BME280;43755;49.736;8.734;2023-05-22T00:59:07;97464.53;;;14.01;100.00
11448;BME280;43755;49.736;8.734;2023-05-22T01:01:09;97463.66;;;14.01;100.00
11448;BME280;43755;49.736;8.734;2023-05-22T01:03:14;97465.66;;;13.97;100.00
11448;BME280;43755;49.736;8.734;2023-05-22T01:05:15;97458.75;;;13.94;100.00
11448;BME280;43755;49.736;8.734;2023-05-22T01:07:17;97461.50;;;13.93;100.00
11448;BME280;43755;49.736;8.734;2023-05-22T01:09:18;97461.72;;;13.90;100.00
11448;BME280;43755;49.736;8.734;2023-05-22T01:11:24;97458.84;;;13.93;100.00
11448;BME280;43755;49.736;8.734;2023-05-22T01:13:31;97461.41;;;13.94;100.00
11448;BME280;43755;49.736;8.734;2023-05-22T01:15:41;97455.97;;;13.96;100.00
11448;BME280;43755;49.736;8.734;2023-05-22T01:17:49;97456.19;;;13.93;100.00
11448;BME280;43755;49.736;8.734;2023-05-22T01:20:01;97458.47;;;13.85;100.00
11448;BME280;43755;49.736;8.734;2023-05-22T01:22:11;97459.25;;;13.73;100.00
11448;BME280;43755;49.736;8.734;2023-05-22T01:24:52;97461.66;;;13.49;100.00
11448;BME280;43755;49.736;8.734;2023-05-22T01:27:31;97460.44;;;13.40;100.00
11448;BME280;43755;49.736;8.734;2023-05-22T01:29:43;97460.06;;;13.46;100.00
11448;BME280;43755;49.736;8.734;2023-05-22T01:31:49;97450.84;;;13.38;100.00
11448;BME280;43755;49.736;8.734;2023-05-22T01:33:55;97455.97;;;13.27;100.00
11448;BME280;43755;49.736;8.734;2023-05-22T01:35:58;97462.63;;;13.20;100.00
11448;BME280;43755;49.736;8.734;2023-05-22T01:38:01;97454.47;;;13.23;100.00
11448;BME280;43755;49.736;8.734;2023-05-22T01:40:04;97450.59;;;13.28;100.00
11448;BME280;43755;49.736;8.734;2023-05-22T01:42:07;97459.13;;;13.33;100.00
11448;BME280;43755;49.736;8.734;2023-05-22T01:44:08;97458.66;;;13.41;100.00
11448;BME280;43755;49.736;8.734;2023-05-22T01:46:09;97458.72;;;13.39;100.00
11448;BME280;43755;49.736;8.734;2023-05-22T01:48:12;97458.81;;;13.38;100.00
11448;BME280;43755;49.736;8.734;2023-05-22T01:50:14;97456.06;;;13.39;100.00
11448;BME280;43755;49.736;8.734;2023-05-22T01:52:21;97457.78;;;13.40;100.00
11448;BME280;43755;49.736;8.734;2023-05-22T01:54:29;97456.34;;;13.49;100.00
11448;BME280;43755;49.736;8.734;2023-05-22T01:56:37;97453.41;;;13.53;100.00
11448;BME280;43755;49.736;8.734;2023-05-22T01:58:44;97457.50;;;13.59;100.00
11448;BME280;43755;49.736;8.734;2023-05-22T02:00:50;97452.09;;;13.61;100.00
11448;BME280;43755;49.736;8.734;2023-05-22T02:02:57;97455.56;;;13.61;100.00
11448;BME280;43755;49.736;8.734;2023-05-22T02:05:03;97454.91;;;13.58;100.00
11448;BME280;43755;49.736;8.734;2023-05-22T02:07:05;97463.19;;;13.53;100.00
11448;BME280;43755;49.736;8.734;2023-05-22T02:09:07;97454.53;;;13.49;100.00
11448;BME280;43755;49.736;8.734;2023-05-22T02:11:11;97453.88;;;13.46;100.00
11448;BME280;43755;49.736;8.734;2023-05-22T02:13:13;97455.78;;;13.44;100.00
11448;BME280;43755;49.736;8.734;2023-05-22T02:15:15;97457.69;;;13.42;100.00
11448;BME280;43755;49.736;8.734;2023-05-22T02:17:17;97450.47;;;13.44;100.00
11448;BME280;43755;49.736;8.734;2023-05-22T02:19:19;97450.28;;;13.47;100.00
11448;BME280;43755;49.736;8.734;2023-05-22T02:21:22;97454.19;;;13.41;100.00
11448;BME280;43755;49.736;8.734;2023-05-22T02:23:23;97456.75;;;13.43;100.00
11448;BME280;43755;49.736;8.734;2023-05-22T02:25:25;97452.56;;;13.39;100.00
11448;BME280;43755;49.736;8.734;2023-05-22T02:27:26;97454.19;;;13.41;100.00
11448;BME280;43755;49.736;8.734;2023-05-22T02:29:28;97456.06;;;13.39;100.00
11448;BME280;43755;49.736;8.734;2023-05-22T02:31:29;97450.84;;;13.38;100.00
11448;BME280;43755;49.736;8.734;2023-05-22T02:33:31;97448.56;;;13.46;100.00
11448;BME280;43755;49.736;8.734;2023-05-22T02:35:32;97443.91;;;13.49;100.00
11448;BME280;43755;49.736;8.734;2023-05-22T02:37:35;97439.19;;;13.55;100.00
11448;BME280;43755;49.736;8.734;2023-05-22T02:39:37;97443.13;;;13.62;100.00
11448;BME280;43755;49.736;8.734;2023-05-22T02:41:39;97445.53;;;13.66;100.00
11448;BME280;43755;49.736;8.734;2023-05-22T02:43:40;97447.97;;;13.69;100.00
11448;BME280;43755;49.736;8.734;2023-05-22T02:45:41;97441.63;;;13.72;100.00
11448;BME280;43755;49.736;8.734;2023-05-22T02:47:43;97443.81;;;13.65;100.00
11448;BME280;43755;49.736;8.734;2023-05-22T02:49:44;97447.59;;;13.61;100.00
11448;BME280;43755;49.736;8.734;2023-05-22T02:51:46;97442.50;;;13.58;100.00
11448;BME280;43755;49.736;8.734;2023-05-22T02:53:48;97440.47;;;13.62;100.00
11448;BME280;43755;49.736;8.734;2023-05-22T02:55:50;97434.50;;;13.58;100.00
11448;BME280;43755;49.736;8.734;2023-05-22T02:57:52;97441.53;;;13.59;100.00
11448;BME280;43755;49.736;8.734;2023-05-22T02:59:53;97437.72;;;13.63;100.00
11448;BME280;43755;49.736;8.734;2023-05-22T03:01:56;97440.94;;;13.68;100.00
11448;BME280;43755;49.736;8.734;2023-05-22T03:03:58;97445.69;;;13.77;100.00
11448;BME280;43755;49.736;8.734;2023-05-22T03:05:59;97442.03;;;13.78;100.00
11448;BME280;43755;49.736;8.734;2023-05-22T03:08:00;97455.84;;;13.71;100.00
11448;BME280;43755;49.736;8.734;2023-05-22T03:10:04;97450.38;;;13.45;100.00
11448;BME280;43755;49.736;8.734;2023-05-22T03:12:07;97451.69;;;13.38;100.00
11448;BME280;43755;49.736;8.734;2023-05-22T03:14:08;97448.09;;;13.39;100.00
11448;BME280;43755;49.736;8.734;2023-05-22T03:16:09;97449.72;;;13.42;100.00
11448;BME280;43755;49.736;8.734;2023-05-22T03:18:11;97447.63;;;13.47;100.00
11448;BME280;43755;49.736;8.734;2023-05-22T03:20:12;97453.28;;;13.55;100.00
11448;BME280;43755;49.736;8.734;2023-05-22T03:22:15;97453.13;;;13.58;100.00
11448;BME280;43755;49.736;8.734;2023-05-22T03:24:17;97452.91;;;13.61;100.00
11448;BME280;43755;49.736;8.734;2023-05-22T03:26:20;97443.03;;;13.63;100.00
11448;BME280;43755;49.736;8.734;2023-05-22T03:28:21;97453.13;;;13.58;100.00
11448;BME280;43755;49.736;8.734;2023-05-22T03:30:23;97448.66;;;13.59;100.00
11448;BME280;43755;49.736;8.734;2023-05-22T03:32:24;97463.84;;;13.57;100.00
11448;BME280;43755;49.736;8.734;2023-05-22T03:34:26;97468.22;;;13.43;100.00
11448;BME280;43755;49.736;8.734;2023-05-22T03:36:29;97467.56;;;13.40;100.00
11448;BME280;43755;49.736;8.734;2023-05-22T03:38:33;97471.16;;;13.39;100.00
11448;BME280;43755;49.736;8.734;2023-05-22T03:40:34;97478.38;;;13.37;100.00
11448;BME280;43755;49.736;8.734;2023-05-22T03:42:37;97473.16;;;13.35;100.00
11448;BME280;43755;49.736;8.734;2023-05-22T03:44:38;97477.31;;;13.39;100.00
11448;BME280;43755;49.736;8.734;2023-05-22T03:46:40;97470.81;;;13.31;100.00
11448;BME280;43755;49.736;8.734;2023-05-22T03:48:41;97479.41;;;13.34;100.00
11448;BME280;43755;49.736;8.734;2023-05-22T03:50:43;97476.47;;;13.39;100.00
11448;BME280;43755;49.736;8.734;2023-05-22T03:52:44;97472.50;;;13.46;100.00
11448;BME280;43755;49.736;8.734;2023-05-22T03:54:45;97475.22;;;13.59;100.00
11448;BME280;43755;49.736;8.734;2023-05-22T03:56:47;97475.72;;;13.65;100.00
11448;BME280;43755;49.736;8.734;2023-05-22T03:58:50;97472.84;;;13.68;100.00
11448;BME280;43755;49.736;8.734;2023-05-22T04:00:52;97466.66;;;13.68;100.00
11448;BME280;43755;49.736;8.734;2023-05-22T04:02:53;97466.50;;;13.71;100.00
11448;BME280;43755;49.736;8.734;2023-05-22T04:04:57;97475.97;;;13.75;100.00
11448;BME280;43755;49.736;8.734;2023-05-22T04:06:58;97475.88;;;13.76;100.00
11448;BME280;43755;49.736;8.734;2023-05-22T04:09:01;97473.31;;;13.75;100.00
11448;BME280;43755;49.736;8.734;2023-05-22T04:11:03;97477.47;;;13.79;100.00
11448;BME280;43755;49.736;8.734;2023-05-22T04:13:05;97477.84;;;13.87;100.00
11448;BME280;43755;49.736;8.734;2023-05-22T04:15:08;97478.31;;;13.93;100.00
11448;BME280;43755;49.736;8.734;2023-05-22T04:17:10;97480.16;;;14.06;100.00
11448;BME280;43755;49.736;8.734;2023-05-22T04:19:11;97480.81;;;14.09;100.00
11448;BME280;43755;49.736;8.734;2023-05-22T04:21:13;97482.22;;;14.15;100.00
11448;BME280;43755;49.736;8.734;2023-05-22T04:23:14;97489.94;;;14.19;100.00
11448;BME280;43755;49.736;8.734;2023-05-22T04:25:16;97490.47;;;14.24;100.00
11448;BME280;43755;49.736;8.734;2023-05-22T04:27:18;97489.09;;;14.31;100.00
11448;BME280;43755;49.736;8.734;2023-05-22T04:29:21;97493.00;;;14.40;100.00
11448;BME280;43755;49.736;8.734;2023-05-22T04:31:24;97494.00;;;14.52;100.00
11448;BME280;43755;49.736;8.734;2023-05-22T04:33:26;97491.03;;;14.56;100.00
11448;BME280;43755;49.736;8.734;2023-05-22T04:35:28;97500.41;;;14.62;100.00
11448;BME280;43755;49.736;8.734;2023-05-22T04:37:29;97493.09;;;14.65;100.00
11448;BME280;43755;49.736;8.734;2023-05-22T04:39:31;97491.91;;;14.69;100.00
11448;BME280;43755;49.736;8.734;2023-05-22T04:41:33;97500.44;;;14.74;100.00
11448;BME280;43755;49.736;8.734;2023-05-22T04:43:34;97500.88;;;14.81;100.00
11448;BME280;43755;49.736;8.734;2023-05-22T04:45:37;97501.97;;;14.91;100.00
11448;BME280;43755;49.736;8.734;2023-05-22T04:47:42;97495.34;;;14.97;100.00
11448;BME280;43755;49.736;8.734;2023-05-22T04:49:44;97500.16;;;15.04;100.00
11448;BME280;43755;49.736;8.734;2023-05-22T04:51:45;97503.16;;;15.12;100.00
11448;BME280;43755;49.736;8.734;2023-05-22T04:53:47;97501.91;;;15.31;100.00
11448;BME280;43755;49.736;8.734;2023-05-22T04:55:48;97503.38;;;15.47;100.00
11448;BME280;43755;49.736;8.734;2023-05-22T04:57:50;97500.19;;;15.68;100.00
11448;BME280;43755;49.736;8.734;2023-05-22T04:59:52;97500.47;;;15.88;100.00
11448;BME280;43755;49.736;8.734;2023-05-22T05:01:54;97499.50;;;16.02;100.00
11448;BME280;43755;49.736;8.734;2023-05-22T05:03:56;97502.00;;;16.16;100.00
11448;BME280;43755;49.736;8.734;2023-05-22T05:05:58;97499.97;;;16.20;100.00
11448;BME280;43755;49.736;8.734;2023-05-22T05:07:59;97498.00;;;16.22;100.00
11448;BME280;43755;49.736;8.734;2023-05-22T05:10:01;97510.41;;;16.23;100.00
11448;BME280;43755;49.736;8.734;2023-05-22T05:12:03;97503.88;;;16.27;100.00
11448;BME280;43755;49.736;8.734;2023-05-22T05:14:05;97519.56;;;16.31;100.00
11448;BME280;43755;49.736;8.734;2023-05-22T05:16:06;97503.06;;;16.37;100.00
11448;BME280;43755;49.736;8.734;2023-05-22T05:18:07;97505.28;;;16.44;100.00
11448;BME280;43755;49.736;8.734;2023-05-22T05:20:10;97510.31;;;16.48;100.00
11448;BME280;43755;49.736;8.734;2023-05-22T05:22:13;97514.84;;;16.35;100.00
11448;BME280;43755;49.736;8.734;2023-05-22T05:24:15;97510.25;;;16.37;100.00
11448;BME280;43755;49.736;8.734;2023-05-22T05:26:17;97507.38;;;16.27;100.00
11448;BME280;43755;49.736;8.734;2023-05-22T05:28:20;97510.66;;;16.20;100.00
11448;BME280;43755;49.736;8.734;2023-05-22T05:30:22;97513.63;;;16.15;100.00
11448;BME280;43755;49.736;8.734;2023-05-22T05:32:23;97515.50;;;16.26;100.00
11448;BME280;43755;49.736;8.734;2023-05-22T05:34:25;97507.03;;;16.32;100.00
11448;BME280;43755;49.736;8.734;2023-05-22T05:36:28;97506.69;;;16.49;100.00
11448;BME280;43755;49.736;8.734;2023-05-22T05:38:29;97503.84;;;16.63;100.00
11448;BME280;43755;49.736;8.734;2023-05-22T05:40:30;97509.88;;;16.78;100.00
11448;BME280;43755;49.736;8.734;2023-05-22T05:42:32;97504.09;;;16.95;100.00
11448;BME280;43755;49.736;8.734;2023-05-22T05:44:33;97504.38;;;17.14;100.00
11448;BME280;43755;49.736;8.734;2023-05-22T05:46:34;97504.41;;;17.26;100.00
11448;BME280;43755;49.736;8.734;2023-05-22T05:48:36;97518.78;;;17.36;100.00
11448;BME280;43755;49.736;8.734;2023-05-22T05:50:37;97505.88;;;17.41;100.00
11448;BME280;43755;49.736;8.734;2023-05-22T05:52:40;97517.34;;;17.54;100.00
11448;BME280;43755;49.736;8.734;2023-05-22T05:54:41;97508.50;;;17.65;100.00
11448;BME280;43755;49.736;8.734;2023-05-22T05:56:46;97513.63;;;17.79;100.00
11448;BME280;43755;49.736;8.734;2023-05-22T05:58:48;97511.53;;;17.93;100.00
11448;BME280;43755;49.736;8.734;2023-05-22T06:00:49;97509.47;;;18.08;100.00
11448;BME280;43755;49.736;8.734;2023-05-22T06:02:51;97515.78;;;18.18;100.00
11448;BME280;43755;49.736;8.734;2023-05-22T06:04:52;97520.13;;;18.30;100.00
11448;BME280;43755;49.736;8.734;2023-05-22T06:06:55;97517.88;;;18.47;100.00
11448;BME280;43755;49.736;8.734;2023-05-22T06:08:57;97523.72;;;18.63;100.00
11448;BME280;43755;49.736;8.734;2023-05-22T06:10:59;97522.06;;;18.83;100.00
11448;BME280;43755;49.736;8.734;2023-05-22T06:13:00;97519.06;;;18.97;100.00
11448;BME280;43755;49.736;8.734;2023-05-22T06:15:02;97519.50;;;19.13;100.00
11448;BME280;43755;49.736;8.734;2023-05-22T06:17:04;97519.16;;;19.27;100.00
11448;BME280;43755;49.736;8.734;2023-05-22T06:19:06;97516.41;;;19.38;100.00
11448;BME280;43755;49.736;8.734;2023-05-22T06:21:07;97527.41;;;19.56;100.00
11448;BME280;43755;49.736;8.734;2023-05-22T06:23:09;97527.03;;;19.60;100.00
11448;BME280;43755;49.736;8.734;2023-05-22T06:25:11;97524.16;;;19.83;100.00
11448;BME280;43755;49.736;8.734;2023-05-22T06:27:13;97522.81;;;19.98;100.00
11448;BME280;43755;49.736;8.734;2023-05-22T06:29:14;97523.00;;;20.16;100.00
11448;BME280;43755;49.736;8.734;2023-05-22T06:31:15;97526.00;;;20.22;100.00
11448;BME280;43755;49.736;8.734;2023-05-22T06:33:17;97525.06;;;20.33;100.00
11448;BME280;43755;49.736;8.734;2023-05-22T06:35:19;97526.09;;;20.51;100.00
11448;BME280;43755;49.736;8.734;2023-05-22T06:37:20;97524.75;;;20.66;96.59
11448;BME280;43755;49.736;8.734;2023-05-22T06:39:22;97517.66;;;20.75;89.80
11448;BME280;43755;49.736;8.734;2023-05-22T06:41:24;97524.16;;;20.92;87.55
11448;BME280;43755;49.736;8.734;2023-05-22T06:43:26;97524.75;;;21.05;89.26
11448;BME280;43755;49.736;8.734;2023-05-22T06:45:27;97514.69;;;21.07;86.81
11448;BME280;43755;49.736;8.734;2023-05-22T06:47:29;97515.84;;;21.14;84.40
11448;BME280;43755;49.736;8.734;2023-05-22T06:49:30;97524.47;;;21.27;85.62
11448;BME280;43755;49.736;8.734;2023-05-22T06:51:31;97528.03;;;21.37;91.46
11448;BME280;43755;49.736;8.734;2023-05-22T06:53:33;97521.03;;;21.44;88.65
11448;BME280;43755;49.736;8.734;2023-05-22T06:55:34;97529.41;;;21.41;85.47
11448;BME280;43755;49.736;8.734;2023-05-22T06:57:37;97527.16;;;21.37;84.08
11448;BME280;43755;49.736;8.734;2023-05-22T06:59:38;97525.63;;;21.24;81.67
11448;BME280;43755;49.736;8.734;2023-05-22T07:01:40;97524.88;;;21.42;81.17
11448;BME280;43755;49.736;8.734;2023-05-22T07:03:41;97527.44;;;21.43;79.82
11448;BME280;43755;49.736;8.734;2023-05-22T07:05:43;97533.50;;;21.55;79.46
11448;BME280;43755;49.736;8.734;2023-05-22T07:07:44;97527.50;;;21.71;81.60
11448;BME280;43755;49.736;8.734;2023-05-22T07:09:45;97538.94;;;21.82;80.27
11448;BME280;43755;49.736;8.734;2023-05-22T07:11:47;97536.66;;;21.87;77.30
11448;BME280;43755;49.736;8.734;2023-05-22T07:13:50;97534.53;;;21.91;80.37
11448;BME280;43755;49.736;8.734;2023-05-22T07:15:51;97536.56;;;21.79;75.83
11448;BME280;43755;49.736;8.734;2023-05-22T07:17:53;97539.22;;;21.89;78.95
11448;BME280;43755;49.736;8.734;2023-05-22T07:19:54;97546.00;;;22.02;73.37
11448;BME280;43755;49.736;8.734;2023-05-22T07:21:56;97543.59;;;21.99;75.84
11448;BME280;43755;49.736;8.734;2023-05-22T07:23:59;97540.22;;;21.88;75.13
11448;BME280;43755;49.736;8.734;2023-05-22T07:26:02;97542.91;;;21.88;77.41
11448;BME280;43755;49.736;8.734;2023-05-22T07:28:04;97542.31;;;22.03;75.23
11448;BME280;43755;49.736;8.734;2023-05-22T07:30:10;97545.06;;;22.21;74.20
11448;BME280;43755;49.736;8.734;2023-05-22T07:32:11;97544.25;;;22.11;77.52
11448;BME280;43755;49.736;8.734;2023-05-22T07:34:13;97543.28;;;22.12;77.58
11448;BME280;43755;49.736;8.734;2023-05-22T07:36:14;97554.59;;;22.16;78.83
11448;BME280;43755;49.736;8.734;2023-05-22T07:38:18;97544.25;;;22.38;78.19
11448;BME280;43755;49.736;8.734;2023-05-22T07:40:19;97551.59;;;22.46;75.64
11448;BME280;43755;49.736;8.734;2023-05-22T07:42:20;97548.72;;;22.30;69.01
11448;BME280;43755;49.736;8.734;2023-05-22T07:44:22;97551.59;;;22.46;69.92
11448;BME280;43755;49.736;8.734;2023-05-22T07:46:25;97552.81;;;22.61;73.16
11448;BME280;43755;49.736;8.734;2023-05-22T07:48:26;97549.09;;;22.62;73.39
11448;BME280;43755;49.736;8.734;2023-05-22T07:50:28;97559.22;;;22.51;77.10
11448;BME280;43755;49.736;8.734;2023-05-22T07:52:32;97555.00;;;22.48;68.93
11448;BME280;43755;49.736;8.734;2023-05-22T07:54:33;97552.38;;;22.56;71.55
11448;BME280;43755;49.736;8.734;2023-05-22T07:56:35;97563.09;;;22.48;74.57
11448;BME280;43755;49.736;8.734;2023-05-22T07:58:39;97565.03;;;22.28;79.32
11448;BME280;43755;49.736;8.734;2023-05-22T08:00:41;97558.59;;;22.12;75.09
11448;BME280;43755;49.736;8.734;2023-05-22T08:02:44;97567.59;;;21.74;81.43
11448;BME280;43755;49.736;8.734;2023-05-22T08:04:45;97567.38;;;21.29;82.79
11448;BME280;43755;49.736;8.734;2023-05-22T08:06:47;97569.22;;;21.28;82.88
11448;BME280;43755;49.736;8.734;2023-05-22T08:08:48;97567.63;;;21.06;86.57
11448;BME280;43755;49.736;8.734;2023-05-22T08:10:52;97572.19;;;21.15;87.59
11448;BME280;43755;49.736;8.734;2023-05-22T08:12:53;97571.34;;;21.24;85.13
11448;BME280;43755;49.736;8.734;2023-05-22T08:14:55;97563.28;;;21.24;87.19
11448;BME280;43755;49.736;8.734;2023-05-22T08:16:56;97566.94;;;21.33;92.26
11448;BME280;43755;49.736;8.734;2023-05-22T08:19:00;97559.16;;;21.40;90.02
11448;BME280;43755;49.736;8.734;2023-05-22T08:21:02;97560.56;;;21.15;90.18
11448;BME280;43755;49.736;8.734;2023-05-22T08:23:03;97567.38;;;21.29;92.41
11448;BME280;43755;49.736;8.734;2023-05-22T08:25:05;97556.91;;;21.35;94.28
11448;BME280;43755;49.736;8.734;2023-05-22T08:27:06;97560.28;;;21.28;94.84
11448;BME280;43755;49.736;8.734;2023-05-22T08:29:08;97562.16;;;21.37;96.44
11448;BME280;43755;49.736;8.734;2023-05-22T08:31:09;97561.00;;;21.49;94.01
11448;BME280;43755;49.736;8.734;2023-05-22T08:33:11;97565.81;;;21.36;94.72
11448;BME280;43755;49.736;8.734;2023-05-22T08:35:13;97563.69;;;21.49;100.00
11448;BME280;43755;49.736;8.734;2023-05-22T08:37:15;97567.63;;;21.45;100.00
11448;BME280;43755;49.736;8.734;2023-05-22T08:39:17;97571.91;;;21.28;97.63
11448;BME280;43755;49.736;8.734;2023-05-22T08:41:19;97574.19;;;21.23;100.00
11448;BME280;43755;49.736;8.734;2023-05-22T08:43:21;97571.63;;;21.21;100.00
11448;BME280;43755;49.736;8.734;2023-05-22T08:45:22;97569.50;;;21.25;100.00
11448;BME280;43755;49.736;8.734;2023-05-22T08:47:25;97567.38;;;21.38;99.04
11448;BME280;43755;49.736;8.734;2023-05-22T08:49:27;97567.97;;;21.32;99.70
11448;BME280;43755;49.736;8.734;2023-05-22T08:51:32;97565.69;;;21.37;99.92
11448;BME280;43755;49.736;8.734;2023-05-22T08:53:36;97558.88;;;21.43;99.71
11448;BME280;43755;49.736;8.734;2023-05-22T08:55:37;97563.13;;;21.36;96.50
11448;BME280;43755;49.736;8.734;2023-05-22T08:57:39;97568.22;;;21.29;100.00
11448;BME280;43755;49.736;8.734;2023-05-22T08:59:42;97552.22;;;21.47;97.16
11448;BME280;43755;49.736;8.734;2023-05-22T09:01:45;97557.44;;;21.39;98.12
11448;BME280;43755;49.736;8.734;2023-05-22T09:03:48;97563.09;;;21.45;97.89
11448;BME280;43755;49.736;8.734;2023-05-22T09:05:50;97557.47;;;21.48;96.79
11448;BME280;43755;49.736;8.734;2023-05-22T09:07:53;97556.47;;;21.49;96.60
11448;BME280;43755;49.736;8.734;2023-05-22T09:09:55;97556.84;;;21.64;100.00
11448;BME280;43755;49.736;8.734;2023-05-22T09:11:57;97553.03;;;21.67;100.00
11448;BME280;43755;49.736;8.734;2023-05-22T09:14:05;97558.81;;;21.72;97.98
11448;BME280;43755;49.736;8.734;2023-05-22T09:16:08;97561.03;;;21.86;100.00
11448;BME280;43755;49.736;8.734;2023-05-22T09:18:09;97556.91;;;21.91;97.75
11448;BME280;43755;49.736;8.734;2023-05-22T09:20:11;97555.25;;;21.90;96.63
11448;BME280;43755;49.736;8.734;2023-05-22T09:22:14;97565.94;;;22.10;98.73
11448;BME280;43755;49.736;8.734;2023-05-22T09:24:18;97560.88;;;22.07;92.83
11448;BME280;43755;49.736;8.734;2023-05-22T09:26:19;97561.28;;;22.12;94.84
11448;BME280;43755;49.736;8.734;2023-05-22T09:28:21;97556.44;;;22.15;97.16
11448;BME280;43755;49.736;8.734;2023-05-22T09:30:23;97555.63;;;22.05;92.85
11448;BME280;43755;49.736;8.734;2023-05-22T09:32:28;97560.38;;;22.21;95.80
11448;BME280;43755;49.736;8.734;2023-05-22T09:34:29;97560.34;;;22.30;96.03
11448;BME280;43755;49.736;8.734;2023-05-22T09:36:32;97559.75;;;22.36;93.95
11448;BME280;43755;49.736;8.734;2023-05-22T09:38:33;97559.94;;;22.25;93.29
11448;BME280;43755;49.736;8.734;2023-05-22T09:40:38;97549.72;;;22.29;93.41
11448;BME280;43755;49.736;8.734;2023-05-22T09:42:42;97559.44;;;22.39;89.12
11448;BME280;43755;49.736;8.734;2023-05-22T09:44:47;97557.56;;;22.50;93.22
11448;BME280;43755;49.736;8.734;2023-05-22T09:46:48;97563.75;;;22.60;88.83
11448;BME280;43755;49.736;8.734;2023-05-22T09:48:50;97551.19;;;22.68;90.84
11448;BME280;43755;49.736;8.734;2023-05-22T09:50:53;97555.16;;;22.74;86.79
11448;BME280;43755;49.736;8.734;2023-05-22T09:52:55;97557.34;;;22.88;87.59
11448;BME280;43755;49.736;8.734;2023-05-22T09:55:00;97552.47;;;23.09;84.99
11448;BME280;43755;49.736;8.734;2023-05-22T09:57:05;97556.66;;;23.21;89.95
11448;BME280;43755;49.736;8.734;2023-05-22T09:59:11;97554.03;;;23.47;88.03
11448;BME280;43755;49.736;8.734;2023-05-22T10:01:13;97557.94;;;23.71;83.90
11448;BME280;43755;49.736;8.734;2023-05-22T10:03:21;97553.28;;;24.32;82.55
11448;BME280;43755;49.736;8.734;2023-05-22T10:05:24;97553.44;;;24.39;79.03
11448;BME280;43755;49.736;8.734;2023-05-22T10:07:34;97560.16;;;24.69;77.21
11448;BME280;43755;49.736;8.734;2023-05-22T10:09:37;97562.16;;;25.09;75.40
11448;BME280;43755;49.736;8.734;2023-05-22T10:11:39;97553.38;;;25.31;70.98
11448;BME280;43755;49.736;8.734;2023-05-22T10:13:43;97552.88;;;25.52;74.21
11448;BME280;43755;49.736;8.734;2023-05-22T10:15:46;97554.22;;;25.48;70.54
11448;BME280;43755;49.736;8.734;2023-05-22T10:17:48;97552.72;;;25.21;72.97
11448;BME280;43755;49.736;8.734;2023-05-22T10:19:50;97550.50;;;25.33;76.60
11448;BME280;43755;49.736;8.734;2023-05-22T10:21:55;97547.31;;;25.78;78.32
11448;BME280;43755;49.736;8.734;2023-05-22T10:23:58;97551.31;;;25.98;69.70
11448;BME280;43755;49.736;8.734;2023-05-22T10:26:01;97552.50;;;26.03;70.44
11448;BME280;43755;49.736;8.734;2023-05-22T10:28:02;97552.16;;;25.98;71.59
11448;BME280;43755;49.736;8.734;2023-05-22T10:30:17;97546.25;;;26.03;65.53
11448;BME280;43755;49.736;8.734;2023-05-22T10:32:26;97546.69;;;26.31;67.35
11448;BME280;43755;49.736;8.734;2023-05-22T10:34:39;97551.16;;;25.99;62.85
11448;BME280;43755;49.736;8.734;2023-05-22T10:36:57;97542.88;;;25.85;64.78
11448;BME280;43755;49.736;8.734;2023-05-22T10:39:15;97543.38;;;25.96;65.35
11448;BME280;43755;49.736;8.734;2023-05-22T10:41:24;97540.19;;;26.40;65.16
11448;BME280;43755;49.736;8.734;2023-05-22T10:43:28;97545.03;;;26.14;65.18